WetterOnline ( https://www.wetteronline.de )

Wetter aktuell Tilligte

Aktuelles Wetter: Ahaus (46m)

6-stündlich | Neueste Meldungen
Ortszeit Temperatur Wetter
Mi, 18.09. 14:00 15.1° C leicht bewölkt
Mi, 18.09. 8:00 4.6° C wolkenlos
Mi, 18.09. 2:00 6.8° C leicht bewölkt
Di, 17.09. 20:00 12.1° C leicht bewölkt
Di, 17.09. 14:00 14.8° C bedeckt
Di, 17.09. 8:00 9.0° C wolkig
Di, 17.09. 2:00 8.8° C Nebel
Mo, 16.09. 20:00 13.7° C bewölkt
Ortszeit Temperatur Wetter
Mi, 18.09. 15:00 16.5° C bewölkt
Mi, 18.09. 14:50 16.5° C bewölkt
Mi, 18.09. 14:40 15.4° C bewölkt
Mi, 18.09. 14:30 16.4° C wolkig
Mi, 18.09. 14:20 16.4° C wolkig
Mi, 18.09. 14:10 15.8° C leicht bewölkt
Mi, 18.09. 14:00 15.1° C leicht bewölkt
Mi, 18.09. 13:30 14.5° C wolkig
Mi, 18.09. 13:00 14.2° C bedeckt
Mi, 18.09. 12:30 13.1° C Sprühregen
Mi, 18.09. 12:00 14.2° C bewölkt
Ortszeit Relative Feuchte Sichtweite
Mi, 18.09. 14:00 57% 30 km
Mi, 18.09. 8:00 100% 10 km
Mi, 18.09. 2:00 93% 23 km
Di, 17.09. 20:00 69% 30 km
Di, 17.09. 14:00 74% 40 km
Di, 17.09. 8:00 99% 11 km
Di, 17.09. 2:00 100% 0.7 km
Mo, 16.09. 20:00 92% 12 km
Ortszeit Relative Feuchte Sichtweite
Mi, 18.09. 15:00 55% 45 km
Mi, 18.09. 14:50 55% -
Mi, 18.09. 14:40 55% -
Mi, 18.09. 14:30 55% 30 km
Mi, 18.09. 14:20 55% -
Mi, 18.09. 14:10 58% -
Mi, 18.09. 14:00 57% 30 km
Mi, 18.09. 13:30 63% 55 km
Mi, 18.09. 13:00 69% 35 km
Mi, 18.09. 12:30 72% 30 km
Mi, 18.09. 12:00 67% 30 km
Ortszeit Niederschlagsmenge Niederschlagsart
Mi, 18.09. 14:00 0.1 l/m2 in 6 Std. Regen
Mi, 18.09. 8:00 0.0 l/m2 in 12 Std. -
Mi, 18.09. 2:00 0.0 l/m2 in 6 Std. -
Di, 17.09. 20:00 0.1 l/m2 in 12 Std. Regen
Di, 17.09. 14:00 0.1 l/m2 in 6 Std. Sprühregen
Di, 17.09. 8:00 0.0 l/m2 in 12 Std. -
Di, 17.09. 2:00 0.0 l/m2 in 6 Std. -
Mo, 16.09. 20:00 4 l/m2 in 12 Std. Sprühregen
Ortszeit Niederschlagsmenge Niederschlagsart
Mi, 18.09. 15:00 0.0 l/m2 in 1 Std. -
Mi, 18.09. 14:50 keine Meldung -
Mi, 18.09. 14:40 keine Meldung -
Mi, 18.09. 14:30 0.0 l/m2 in 1 Std. -
Mi, 18.09. 14:20 keine Meldung -
Mi, 18.09. 14:10 keine Meldung -
Mi, 18.09. 14:00 0.1 l/m2 in 1 Std. Regen
Mi, 18.09. 13:30 0.1 l/m2 in 1 Std. Schnee
Mi, 18.09. 13:00 0.1 l/m2 in 1 Std. Regen
Mi, 18.09. 12:30 0.1 l/m2 in 1 Std. -
Mi, 18.09. 12:00 0.0 l/m2 in 1 Std. -
Ortszeit Stärke Spitze Richtung
km/h Bft. km/h Grad Sektor
Mi, 18.09. 14:00 13 3 26 330° NW
Mi, 18.09. 8:00 0 0 18 - -
Mi, 18.09. 2:00 6 1 17 240° SW
Di, 17.09. 20:00 13 3 46 310° NW
Di, 17.09. 14:00 20 4 43 330° NW
Di, 17.09. 8:00 7 2 14 230° SW
Di, 17.09. 2:00 4 1 18 230° SW
Mo, 16.09. 20:00 4 1 11 270° W
Ortszeit Stärke Spitze Richtung
km/h Bft. km/h Grad Sektor
Mi, 18.09. 15:00 13 3 26 310° NW
Mi, 18.09. 14:50 13 3 - 310° NW
Mi, 18.09. 14:40 15 3 - 310° NW
Mi, 18.09. 14:30 9 2 19 310° NW
Mi, 18.09. 14:20 9 2 - 310° NW
Mi, 18.09. 14:10 7 2 - 310° NW
Mi, 18.09. 14:00 13 3 24 330° NW
Mi, 18.09. 13:30 14 3 25 330° NW
Mi, 18.09. 13:00 11 2 25 310° NW
Mi, 18.09. 12:30 14 3 25 350° N
Mi, 18.09. 12:00 9 2 17 280° W
Ortszeit Untergrenze Bedeckung Gattung
total tief tief mittel hoch
Mi, 18.09. 14:00 1500 m 1/8 3/8 - - -
Mi, 18.09. 8:00 - 0/8 0/8 - - -
Mi, 18.09. 2:00 10500 m 6/8 0/8 - - -
Di, 17.09. 20:00 1500 m 4/8 2/8 - - -
Di, 17.09. 14:00 1020 m 8/8 8/8 - - -
Di, 17.09. 8:00 1290 m 7/8 5/8 - - -
Di, 17.09. 2:00 840 m 6/8 3/8 - - -
Mo, 16.09. 20:00 1320 m 8/8 4/8 - - -
Ortszeit Bedeckungsgrad in Achtel und Wolkenuntergrenze
Mi, 18.09. 15:00 5(1200m) 6(1470m) 7(1800m)
Mi, 18.09. 14:50 5(1200m) 6(1470m) 7(1800m)
Mi, 18.09. 14:40 4(1230m) 4(1470m) 7(1800m)
Mi, 18.09. 14:30 4(1080m) 5(1350m) 6(1800m)
Mi, 18.09. 14:20 4(1080m) 5(1350m) 6(1800m)
Mi, 18.09. 14:10 3(1080m) 3(1350m)
Mi, 18.09. 14:00 1(1500m) 3(1350m)
Mi, 18.09. 13:30 6(1500m)
Mi, 18.09. 13:00 1(780m) 8(1500m) 8(2100m)
Mi, 18.09. 12:30 3(780m) 7(1170m) 8(1500m)
Mi, 18.09. 12:00 2(750m) 5(1200m) 7(1800m)
Ortszeit Luftdruck NN (hPa) Tendenz (hPa in 3 Std.)
Mi, 18.09. 14:00 1027 - 0,2
Mi, 18.09. 8:00 1026 + 0,8
Mi, 18.09. 2:00 1025 + 0,6
Di, 17.09. 20:00 1023 + 1,5
Di, 17.09. 14:00 1020 + 0,2
Di, 17.09. 8:00 1020 - 0,1
Di, 17.09. 2:00 1021 - 0,1
Mo, 16.09. 20:00 1020 - 0,2
Ortszeit Luftdruck NN (hPa) Tendenz (hPa in 3 Std.)
Mi, 18.09. 15:00 1027 - 0,7
Mi, 18.09. 14:50 1027 keine Meldung
Mi, 18.09. 14:40 1027 keine Meldung
Mi, 18.09. 14:30 1027 - 0,6
Mi, 18.09. 14:20 1027 keine Meldung
Mi, 18.09. 14:10 1027 keine Meldung
Mi, 18.09. 14:00 1027 - 0,2
Mi, 18.09. 13:30 1027 0,0
Mi, 18.09. 13:00 1028 + 0,3
Mi, 18.09. 12:30 1028 + 0,6
Mi, 18.09. 12:00 1028 + 0,8
Ortszeit Schneehöhe (cm)
Mi, 18.09. 14:00 -
Mi, 18.09. 8:00 -
Mi, 18.09. 2:00 -
Di, 17.09. 20:00 -
Di, 17.09. 14:00 -
Di, 17.09. 8:00 -
Di, 17.09. 2:00 -
Mo, 16.09. 20:00 -
Ortszeit Schneehöhe (cm)
Mi, 18.09. 15:00 -
Mi, 18.09. 14:50 -
Mi, 18.09. 14:40 -
Mi, 18.09. 14:30 -
Mi, 18.09. 14:20 -
Mi, 18.09. 14:10 -
Mi, 18.09. 14:00 -
Mi, 18.09. 13:30 -
Mi, 18.09. 13:00 -
Mi, 18.09. 12:30 -
Mi, 18.09. 12:00 -
Link zu dieser Seite / Seite empfehlen

Das Wetter in ...